createdAt,value
2017-11-14T00:02:47.740Z,100791.33
2017-11-14T00:05:49.139Z,100785.19
2017-11-14T00:08:50.485Z,100786.92
2017-11-14T00:11:51.866Z,100781.97
2017-11-14T00:14:53.202Z,100778.95
2017-11-14T00:17:54.570Z,100780.63
2017-11-14T00:20:56.054Z,100785.87
2017-11-14T00:23:57.579Z,100780.72
2017-11-14T00:26:59.004Z,100781.64
2017-11-14T00:30:00.369Z,100785.14
2017-11-14T00:33:01.808Z,100790.86
2017-11-14T00:36:03.201Z,100788.94
2017-11-14T00:39:04.593Z,100790.25
2017-11-14T00:42:06.061Z,100781.90
2017-11-14T00:45:07.422Z,100785.98
2017-11-14T00:48:08.837Z,100792.13
2017-11-14T00:51:10.957Z,100793.45
2017-11-14T00:54:12.329Z,100778.09
2017-11-14T00:57:13.705Z,100794.73
2017-11-14T01:00:15.821Z,100810.98
2017-11-14T01:03:17.200Z,100802.16
2017-11-14T01:06:18.616Z,100798.14
2017-11-14T01:09:21.577Z,100802.22
2017-11-14T01:12:22.970Z,100804.89
2017-11-14T01:15:24.306Z,100792.17
2017-11-14T01:18:25.677Z,100793.48
2017-11-14T01:21:27.069Z,100793.48
2017-11-14T01:24:29.182Z,100799.11
2017-11-14T01:27:30.541Z,100811.06
2017-11-14T01:30:32.074Z,100803.61
2017-11-14T01:33:33.477Z,100804.47
2017-11-14T01:36:34.869Z,100814.56
2017-11-14T01:39:36.297Z,100813.20
2017-11-14T01:42:38.465Z,100815.00
2017-11-14T01:45:40.599Z,100798.73
2017-11-14T01:48:42.083Z,100816.36
2017-11-14T01:51:44.176Z,100815.67
2017-11-14T01:54:45.665Z,100825.97
2017-11-14T01:57:47.093Z,100813.23
2017-11-14T02:00:48.465Z,100821.62
2017-11-14T02:03:49.901Z,100805.75
2017-11-14T02:06:51.277Z,100813.28
2017-11-14T02:09:52.772Z,100808.01
2017-11-14T02:12:54.200Z,100799.94
2017-11-14T02:15:55.569Z,100813.09
2017-11-14T02:18:58.436Z,100812.77
2017-11-14T02:22:00.546Z,100811.94
2017-11-14T02:25:03.807Z,100808.23
2017-11-14T02:28:05.158Z,100815.43
2017-11-14T02:31:07.235Z,100814.55
2017-11-14T02:34:09.744Z,100809.75
2017-11-14T02:37:12.594Z,100819.69
2017-11-14T02:40:14.201Z,100811.45
2017-11-14T02:43:15.748Z,100814.10
2017-11-14T02:46:18.316Z,100831.16
2017-11-14T02:49:20.017Z,100829.83
2017-11-14T02:52:21.471Z,100827.69
2017-11-14T02:55:23.021Z,100832.05
2017-11-14T02:58:26.021Z,100832.49
2017-11-14T03:01:27.533Z,100827.25
2017-11-14T03:04:29.271Z,100828.98
2017-11-14T03:07:31.005Z,100831.17
2017-11-14T03:10:32.424Z,100828.14
2017-11-14T03:13:33.841Z,100837.32
2017-11-14T03:16:35.258Z,100824.20
2017-11-14T03:19:36.617Z,100825.91
2017-11-14T03:22:38.806Z,100829.87
2017-11-14T03:25:40.160Z,100835.14
2017-11-14T03:28:41.602Z,100837.35
2017-11-14T03:31:43.058Z,100828.59
2017-11-14T03:34:44.425Z,100827.27
2017-11-14T03:37:45.842Z,100828.05
2017-11-14T03:40:47.987Z,100830.37
2017-11-14T03:43:49.483Z,100832.12
2017-11-14T03:46:50.917Z,100829.14
2017-11-14T03:49:53.027Z,100829.42
2017-11-14T03:52:54.447Z,100846.80
2017-11-14T03:55:56.533Z,100825.78
2017-11-14T03:58:57.973Z,100833.70
2017-11-14T04:01:59.397Z,100829.42
2017-11-14T04:05:01.597Z,100829.59
2017-11-14T04:08:03.023Z,100836.79
2017-11-14T04:11:05.143Z,100831.91
2017-11-14T04:14:06.582Z,100832.84
2017-11-14T04:17:07.973Z,100833.23
2017-11-14T04:20:09.521Z,100834.45
2017-11-14T04:23:10.910Z,100844.59
2017-11-14T04:26:13.050Z,100847.08
2017-11-14T04:29:14.419Z,100839.67
2017-11-14T04:32:15.796Z,100844.08
2017-11-14T04:35:17.172Z,100840.25
2017-11-14T04:38:18.560Z,100844.69
2017-11-14T04:41:20.052Z,100845.80
2017-11-14T04:44:21.478Z,100846.91
2017-11-14T04:47:23.577Z,100840.34
2017-11-14T04:50:24.949Z,100844.28
2017-11-14T04:53:26.405Z,100839.88
2017-11-14T04:56:27.780Z,100831.55
2017-11-14T04:59:29.274Z,100833.30
2017-11-14T05:02:30.600Z,100843.80
2017-11-14T05:05:32.677Z,100840.77
2017-11-14T05:08:34.804Z,100844.20
2017-11-14T05:11:36.198Z,100835.46
2017-11-14T05:14:38.276Z,100838.11
2017-11-14T05:17:39.918Z,100830.63
2017-11-14T05:20:42.083Z,100840.67
2017-11-14T05:23:44.270Z,100834.13
2017-11-14T05:26:45.645Z,100834.60
2017-11-14T05:29:47.009Z,100835.94
2017-11-14T05:32:48.462Z,100833.29
2017-11-14T05:35:49.901Z,100835.06
2017-11-14T05:38:51.272Z,100842.00
2017-11-14T05:41:52.667Z,100843.30
2017-11-14T05:44:54.907Z,100848.66
2017-11-14T05:47:56.307Z,100849.76
2017-11-14T05:50:57.710Z,100849.88
2017-11-14T05:53:59.083Z,100848.97
2017-11-14T05:57:01.249Z,100852.11
2017-11-14T06:00:03.441Z,100856.61
2017-11-14T06:03:04.889Z,100862.02
2017-11-14T06:06:06.981Z,100870.02
2017-11-14T06:09:08.337Z,100870.45
2017-11-14T06:12:09.809Z,100875.72
2017-11-14T06:15:11.142Z,100879.73
2017-11-14T06:18:12.527Z,100879.70
2017-11-14T06:21:13.933Z,100875.97
2017-11-14T06:24:15.297Z,100873.36
2017-11-14T06:27:16.801Z,100864.23
2017-11-14T06:30:18.164Z,100876.20
2017-11-14T06:33:20.328Z,100869.72
2017-11-14T06:36:22.465Z,100873.03
2017-11-14T06:39:23.916Z,100880.13
2017-11-14T06:42:25.473Z,100888.44
2017-11-14T06:45:26.895Z,100894.45
2017-11-14T06:48:28.261Z,100886.55
2017-11-14T06:51:29.653Z,100893.85
2017-11-14T06:54:31.709Z,100896.44
2017-11-14T06:57:33.084Z,100894.90
2017-11-14T07:00:34.502Z,100899.30
2017-11-14T07:03:35.776Z,100905.52
2017-11-14T07:06:37.878Z,100900.81
2017-11-14T07:09:39.128Z,100912.22
2017-11-14T07:12:40.426Z,100913.97
2017-11-14T07:15:41.709Z,100914.09
2017-11-14T07:18:42.975Z,100903.31
2017-11-14T07:21:44.316Z,100915.91
2017-11-14T07:24:45.598Z,100914.13
2017-11-14T07:27:46.916Z,100914.65
2017-11-14T07:30:48.209Z,100921.36
2017-11-14T07:33:49.516Z,100916.81
2017-11-14T07:36:50.827Z,100911.59
2017-11-14T07:39:52.904Z,100908.52
2017-11-14T07:42:54.902Z,100918.25
2017-11-14T07:45:56.185Z,100917.63
2017-11-14T07:48:57.462Z,100910.67
2017-11-14T07:51:59.529Z,100914.11
2017-11-14T07:55:01.553Z,100916.44
2017-11-14T07:58:02.878Z,100921.76
2017-11-14T08:01:04.153Z,100922.66
2017-11-14T08:04:05.438Z,100926.11
2017-11-14T08:07:06.764Z,100925.28
2017-11-14T08:10:08.059Z,100919.34
2017-11-14T08:13:09.320Z,100925.33
2017-11-14T08:16:10.625Z,100923.48
2017-11-14T08:19:11.902Z,100921.43
2017-11-14T08:22:13.332Z,100921.59
2017-11-14T08:25:14.627Z,100915.02
2017-11-14T08:28:15.932Z,100910.70
2017-11-14T08:31:17.224Z,100919.61
2017-11-14T08:34:18.489Z,100916.95
2017-11-14T08:37:19.813Z,100931.31
2017-11-14T08:40:21.162Z,100921.73
2017-11-14T08:43:22.473Z,100924.87
2017-11-14T08:46:23.768Z,100926.17
2017-11-14T08:49:25.029Z,100921.80
2017-11-14T08:52:26.304Z,100918.20
2017-11-14T08:55:27.586Z,100919.05
2017-11-14T08:58:29.604Z,100914.70
2017-11-14T09:01:30.932Z,100913.40
2017-11-14T09:04:32.241Z,100916.05
2017-11-14T09:07:34.340Z,100924.06
2017-11-14T09:10:35.654Z,100911.28
2017-11-14T09:13:37.714Z,100909.47
2017-11-14T09:16:39.080Z,100913.36
2017-11-14T09:19:41.126Z,100910.41
2017-11-14T09:22:42.473Z,100918.76
2017-11-14T09:25:43.800Z,100917.02
2017-11-14T09:28:45.137Z,100912.02
2017-11-14T09:31:46.449Z,100914.81
2017-11-14T09:34:48.532Z,100922.13
2017-11-14T09:37:49.856Z,100933.38
2017-11-14T09:40:51.946Z,100936.89
2017-11-14T09:43:53.268Z,100939.14
2017-11-14T09:46:55.300Z,100933.17
2017-11-14T09:49:56.616Z,100921.26
2017-11-14T09:52:57.917Z,100925.23
2017-11-14T09:55:59.250Z,100927.41
2017-11-14T09:59:00.569Z,100928.37
2017-11-14T10:02:01.945Z,100923.98
2017-11-14T10:05:03.262Z,100936.25
2017-11-14T10:08:04.597Z,100951.61
2017-11-14T10:11:12.861Z,100954.39
2017-11-14T10:14:14.225Z,100958.61
2017-11-14T10:17:15.570Z,100964.86
2017-11-14T10:20:16.911Z,100960.32
2017-11-14T10:23:18.223Z,100968.38
2017-11-14T10:26:19.533Z,100962.28
2017-11-14T10:29:20.884Z,100960.47
2017-11-14T10:32:22.194Z,100971.52
2017-11-14T10:35:23.567Z,100973.23
2017-11-14T10:38:24.951Z,100971.91
2017-11-14T10:41:27.021Z,100976.37
2017-11-14T10:44:29.116Z,100969.77
2017-11-14T10:47:30.411Z,100971.04
2017-11-14T10:50:31.745Z,100973.16
2017-11-14T10:53:33.076Z,100965.72
2017-11-14T10:56:34.357Z,100971.95
2017-11-14T10:59:35.702Z,100969.77
2017-11-14T11:02:37.061Z,100949.91
2017-11-14T11:05:38.408Z,100952.88
2017-11-14T11:08:39.700Z,100947.13
2017-11-14T11:11:41.017Z,100943.65
2017-11-14T11:14:42.375Z,100930.56
2017-11-14T11:17:44.424Z,100927.27
2017-11-14T11:20:45.774Z,100926.32
2017-11-14T11:23:47.127Z,100918.60
2017-11-14T11:26:48.416Z,100924.87
2017-11-14T11:29:49.781Z,100918.23
2017-11-14T11:32:51.085Z,100918.22
2017-11-14T11:35:52.393Z,100916.89
2017-11-14T11:38:54.597Z,100905.86
2017-11-14T11:41:55.911Z,100908.52
2017-11-14T11:44:57.272Z,100902.84
2017-11-14T11:47:58.641Z,100897.55
2017-11-14T11:51:00.041Z,100905.34
2017-11-14T11:54:01.367Z,100902.31
2017-11-14T11:57:03.392Z,100898.53
2017-11-14T12:00:04.732Z,100893.72
2017-11-14T12:03:06.080Z,100892.80
2017-11-14T12:06:07.403Z,100897.17
2017-11-14T12:09:08.733Z,100899.25
2017-11-14T12:12:10.792Z,100904.61
2017-11-14T12:15:12.874Z,100908.42
2017-11-14T12:18:14.952Z,100913.80
2017-11-14T12:21:16.273Z,100906.25
2017-11-14T12:24:17.623Z,100904.56
2017-11-14T12:27:18.968Z,100910.80
2017-11-14T12:30:20.326Z,100896.23
2017-11-14T12:33:22.432Z,100888.17
2017-11-14T12:36:23.755Z,100892.75
2017-11-14T12:39:25.877Z,100902.82
2017-11-14T12:42:27.150Z,100893.09
2017-11-14T12:45:28.491Z,100889.88
2017-11-14T12:48:29.834Z,100886.60
2017-11-14T12:51:31.204Z,100887.23
2017-11-14T12:54:32.580Z,100887.55
2017-11-14T12:57:41.517Z,100898.35
2017-11-14T13:00:42.881Z,100876.70
2017-11-14T13:03:44.279Z,100873.23
2017-11-14T13:06:45.623Z,100874.08
2017-11-14T13:09:46.967Z,100871.83
2017-11-14T13:12:48.352Z,100874.55
2017-11-14T13:15:50.456Z,100865.22
2017-11-14T13:18:51.797Z,100865.28
2017-11-14T13:21:53.192Z,100862.98
2017-11-14T13:24:54.540Z,100861.64
2017-11-14T13:27:55.958Z,100865.72
2017-11-14T13:30:57.337Z,100861.86
2017-11-14T13:33:58.691Z,100868.61
2017-11-14T13:37:00.092Z,100866.52
2017-11-14T13:40:01.435Z,100865.90
2017-11-14T13:43:02.795Z,100877.49
2017-11-14T13:46:04.099Z,100885.19
2017-11-14T13:49:05.401Z,100884.53
2017-11-14T13:52:13.700Z,100886.85
2017-11-14T13:55:14.969Z,100875.81
2017-11-14T13:58:16.270Z,100876.84
2017-11-14T14:01:17.547Z,100876.43
2017-11-14T14:04:18.856Z,100874.59
2017-11-14T14:07:20.198Z,100864.40
2017-11-14T14:10:21.501Z,100870.48
2017-11-14T14:13:22.828Z,100869.91
2017-11-14T14:16:24.852Z,100871.39
2017-11-14T14:19:26.125Z,100875.48
2017-11-14T14:22:27.453Z,100870.64
2017-11-14T14:25:28.713Z,100871.25
2017-11-14T14:28:30.123Z,100873.12
2017-11-14T14:31:31.435Z,100862.11
2017-11-14T14:34:33.515Z,100873.09
2017-11-14T14:37:35.518Z,100871.09
2017-11-14T14:40:36.844Z,100882.50
2017-11-14T14:43:38.125Z,100868.20
2017-11-14T14:46:39.437Z,100878.41
2017-11-14T14:49:40.724Z,100877.08
2017-11-14T14:52:42.004Z,100880.61
2017-11-14T14:55:43.296Z,100871.09
2017-11-14T14:58:44.553Z,100871.30
2017-11-14T15:01:45.871Z,100870.47
2017-11-14T15:04:47.896Z,100882.53
2017-11-14T15:07:49.195Z,100878.10
2017-11-14T15:10:50.473Z,100867.86
2017-11-14T15:13:51.760Z,100868.10
2017-11-14T15:16:53.041Z,100876.06
2017-11-14T15:19:54.375Z,100871.19
2017-11-14T15:22:56.428Z,100870.70
2017-11-14T15:25:57.689Z,100870.61
2017-11-14T15:28:59.760Z,100877.81
2017-11-14T15:32:01.862Z,100879.42
2017-11-14T15:35:03.200Z,100879.89
2017-11-14T15:38:04.523Z,100871.50
2017-11-14T15:41:06.587Z,100897.02
2017-11-14T15:44:15.593Z,100871.44
2017-11-14T15:47:16.903Z,100875.77
2017-11-14T15:50:18.249Z,100881.62
2017-11-14T15:53:19.581Z,100878.52
2017-11-14T15:56:20.896Z,100889.54
2017-11-14T15:59:22.205Z,100879.84
2017-11-14T16:02:23.519Z,100876.95
2017-11-14T16:05:25.560Z,100891.31
2017-11-14T16:08:26.945Z,100883.84
2017-11-14T16:11:28.290Z,100869.24
2017-11-14T16:14:29.627Z,100881.30
2017-11-14T16:17:31.710Z,100883.77
2017-11-14T16:20:33.839Z,100878.02
2017-11-14T16:23:35.382Z,100887.83
2017-11-14T16:26:36.748Z,100888.53
2017-11-14T16:29:38.163Z,100896.25
2017-11-14T16:32:39.490Z,100896.23
2017-11-14T16:35:41.039Z,100902.35
2017-11-14T16:38:43.124Z,100899.21
2017-11-14T16:41:44.737Z,100896.37
2017-11-14T16:44:46.210Z,100906.15
2017-11-14T16:47:48.331Z,100914.65
2017-11-14T16:50:49.792Z,100905.01
2017-11-14T16:53:51.175Z,100902.31
2017-11-14T16:56:53.310Z,100906.31
2017-11-14T17:03:03.261Z,100924.88
2017-11-14T17:06:04.665Z,100911.97
2017-11-14T17:09:06.826Z,100919.63
2017-11-14T17:12:09.154Z,100924.78
2017-11-14T17:15:10.706Z,100911.58
2017-11-14T17:18:12.131Z,100918.01
2017-11-14T17:21:13.564Z,100905.85
2017-11-14T17:24:15.655Z,100908.53
2017-11-14T17:27:23.921Z,100920.32
2017-11-14T17:30:25.338Z,100910.33
2017-11-14T17:33:26.851Z,100906.81
2017-11-14T17:36:29.153Z,100915.03
2017-11-14T17:39:30.570Z,100923.06
2017-11-14T17:42:32.035Z,100922.22
2017-11-14T17:45:34.177Z,100920.47
2017-11-14T17:48:35.545Z,100926.55
2017-11-14T17:51:37.700Z,100934.95
2017-11-14T17:54:39.074Z,100931.48
2017-11-14T17:57:41.316Z,100931.34
2017-11-14T18:00:42.766Z,100934.09
2017-11-14T18:03:44.159Z,100948.56
2017-11-14T18:06:45.681Z,100951.27
2017-11-14T18:09:47.011Z,100942.40
2017-11-14T18:12:48.453Z,100950.77
2017-11-14T18:15:49.906Z,100952.59
2017-11-14T18:18:51.368Z,100959.63
2017-11-14T18:21:52.845Z,100949.28
2017-11-14T18:25:01.216Z,100953.31
2017-11-14T18:28:02.721Z,100954.33
2017-11-14T18:31:04.143Z,100960.48
2017-11-14T18:34:05.669Z,100953.91
2017-11-14T18:37:07.164Z,100954.36
2017-11-14T18:40:08.625Z,100962.20
2017-11-14T18:43:10.984Z,100963.91
2017-11-14T18:46:12.434Z,100958.30
2017-11-14T18:49:14.113Z,100965.27
2017-11-14T18:52:15.477Z,100973.20
2017-11-14T18:55:17.906Z,100966.59
2017-11-14T18:58:19.335Z,100975.38
2017-11-14T19:01:24.585Z,100977.62
2017-11-14T19:04:26.292Z,100984.17
2017-11-14T19:07:28.973Z,100977.52
2017-11-14T19:10:30.590Z,100974.13
2017-11-14T19:13:33.813Z,100975.47
2017-11-14T19:16:36.909Z,100972.33
2017-11-14T19:19:39.586Z,100970.19
2017-11-14T19:22:41.909Z,100989.83
2017-11-14T19:25:43.592Z,100985.94
2017-11-14T19:28:45.090Z,100986.78
2017-11-14T19:31:47.705Z,100985.14
2017-11-14T19:34:50.690Z,100989.52
2017-11-14T19:37:52.339Z,100988.06
2017-11-14T19:40:54.689Z,100986.89
2017-11-14T19:43:56.807Z,100987.36
2017-11-14T19:46:58.321Z,100998.35
2017-11-14T19:50:00.521Z,100992.13
2017-11-14T19:53:02.228Z,100999.56
2017-11-14T19:56:03.700Z,100991.69
2017-11-14T19:59:06.897Z,100980.72
2017-11-14T20:02:09.084Z,100991.77
2017-11-14T20:05:10.759Z,100991.67
2017-11-14T20:08:13.209Z,100989.95
2017-11-14T20:11:15.049Z,100988.98
2017-11-14T20:14:16.548Z,100993.77
2017-11-14T20:17:19.130Z,101006.45
2017-11-14T20:20:21.022Z,100996.76
2017-11-14T20:23:22.409Z,100995.24
2017-11-14T20:26:24.420Z,101011.95
2017-11-14T20:29:26.038Z,100997.70
2017-11-14T20:32:28.419Z,101006.47
2017-11-14T20:35:30.730Z,101006.05
2017-11-14T20:38:33.079Z,100999.55
2017-11-14T20:41:34.470Z,101005.73
2017-11-14T20:44:36.395Z,101010.51
2017-11-14T20:47:40.328Z,101003.58
2017-11-14T20:50:42.731Z,100996.59
2017-11-14T20:53:44.198Z,101009.33
2017-11-14T20:56:46.466Z,101001.86
2017-11-14T20:59:49.036Z,101005.36
2017-11-14T21:02:50.655Z,101008.91
2017-11-14T21:05:52.157Z,100998.72
2017-11-14T21:08:53.882Z,101004.96
2017-11-14T21:11:56.421Z,101005.38
2017-11-14T21:14:58.711Z,101002.22
2017-11-14T21:18:01.312Z,101002.70
2017-11-14T21:21:03.267Z,101001.71
2017-11-14T21:24:04.682Z,100986.25
2017-11-14T21:27:07.661Z,100993.31
2017-11-14T21:30:10.794Z,100991.65
2017-11-14T21:33:13.359Z,100993.86
2017-11-14T21:36:15.141Z,100990.77
2017-11-14T21:39:16.908Z,100995.27
2017-11-14T21:42:20.205Z,100996.09
2017-11-14T21:45:22.828Z,100993.77
2017-11-14T21:48:27.459Z,100996.48
2017-11-14T21:51:28.953Z,100989.78
2017-11-14T21:54:30.320Z,100990.14
2017-11-14T21:57:33.861Z,100983.36
2017-11-14T22:00:35.488Z,101000.61
2017-11-14T22:03:36.916Z,100998.02
2017-11-14T22:06:38.440Z,101009.30
2017-11-14T22:09:40.448Z,101007.55
2017-11-14T22:12:45.019Z,101007.48
2017-11-14T22:15:47.310Z,101017.16
2017-11-14T22:18:49.224Z,101021.66
2017-11-14T22:21:51.169Z,101013.73
2017-11-14T22:24:52.601Z,101021.56
2017-11-14T22:27:54.025Z,101022.91
2017-11-14T22:30:56.165Z,101020.36
2017-11-14T22:33:57.642Z,101004.95
2017-11-14T22:36:59.766Z,101019.02
2017-11-14T22:40:01.198Z,101016.83
2017-11-14T22:43:02.651Z,101028.70
2017-11-14T22:46:04.089Z,101019.45
2017-11-14T22:49:05.553Z,101024.69
2017-11-14T22:52:06.903Z,101020.66
2017-11-14T22:55:08.304Z,101023.87
2017-11-14T22:58:09.686Z,101030.02
2017-11-14T23:01:11.163Z,101026.92
2017-11-14T23:04:12.504Z,101030.45
2017-11-14T23:07:13.894Z,101027.37
2017-11-14T23:10:15.328Z,101030.03
2017-11-14T23:13:16.722Z,101034.86
2017-11-14T23:16:18.852Z,101037.94
2017-11-14T23:19:20.243Z,101025.61
2017-11-14T23:22:22.377Z,101031.77
2017-11-14T23:25:23.729Z,101041.87
2017-11-14T23:28:25.128Z,101040.58
2017-11-14T23:31:27.259Z,101037.05
2017-11-14T23:34:28.629Z,101032.66
2017-11-14T23:37:30.038Z,101038.36
2017-11-14T23:40:31.423Z,101025.19
2017-11-14T23:43:32.839Z,101033.53
2017-11-14T23:46:34.192Z,101023.84
2017-11-14T23:49:35.642Z,101030.45
2017-11-14T23:52:37.035Z,101029.11
2017-11-14T23:55:38.429Z,101023.86
2017-11-14T23:58:39.791Z,101026.39
